Providence, Rhode Island
Traffic Map
Current Weather Conditions
Providence, Rhode Island
Overcast
Overcast
29°
Feels Like: 24°
Wind Chill: 24° Ceiling: 11000
Heat Index: 29° Visibility: 10mi
Dew Point: 25° Wind: 5mph
Humidity: 85% Direction: 250° (WSW)
Pressure: 30.04in Gusts: 0mph
Raw Report DataKPVD 020651Z 25004KT 10SM OVC110 M02/M04 A3004 RMK AO2 SNE06 SLP172 P0000 T10171039
Traffic Incident Summary
Active as of:
Severity:
Category:
InformationThere was an issue retrieving the traffic information for this location. Please try a different location or try again shortly.
Advertisements
Track Severe Weather on mobile